sensor_id;sensor_type;location;lat;lon;timestamp;temperature;humidity
43920;DHT22;29578;51.946;5.874;2022-09-09T00:04:37;15.70;82.10
43920;DHT22;29578;51.946;5.874;2022-09-09T00:07:22;15.60;82.00
43920;DHT22;29578;51.946;5.874;2022-09-09T00:10:12;15.60;82.20
43920;DHT22;29578;51.946;5.874;2022-09-09T00:12:54;15.60;82.10
43920;DHT22;29578;51.946;5.874;2022-09-09T00:15:26;15.60;82.20
43920;DHT22;29578;51.946;5.874;2022-09-09T00:20:45;15.60;82.20
43920;DHT22;29578;51.946;5.874;2022-09-09T00:23:27;15.60;82.30
43920;DHT22;29578;51.946;5.874;2022-09-09T00:26:22;15.70;82.40
43920;DHT22;29578;51.946;5.874;2022-09-09T00:29:12;15.70;82.40
43920;DHT22;29578;51.946;5.874;2022-09-09T00:31:38;15.70;82.30
43920;DHT22;29578;51.946;5.874;2022-09-09T00:34:13;15.60;82.20
43920;DHT22;29578;51.946;5.874;2022-09-09T00:36:41;15.80;82.30
43920;DHT22;29578;51.946;5.874;2022-09-09T00:39:23;15.70;82.30
43920;DHT22;29578;51.946;5.874;2022-09-09T00:42:22;15.60;82.40
43920;DHT22;29578;51.946;5.874;2022-09-09T00:44:57;15.70;82.50
43920;DHT22;29578;51.946;5.874;2022-09-09T00:47:52;15.70;82.50
43920;DHT22;29578;51.946;5.874;2022-09-09T00:50:48;15.70;82.50
43920;DHT22;29578;51.946;5.874;2022-09-09T00:56:15;15.60;82.50
43920;DHT22;29578;51.946;5.874;2022-09-09T00:58:55;15.60;82.50
43920;DHT22;29578;51.946;5.874;2022-09-09T01:01:25;15.50;82.60
43920;DHT22;29578;51.946;5.874;2022-09-09T01:03:55;15.60;82.70
43920;DHT22;29578;51.946;5.874;2022-09-09T01:06:33;15.60;82.70
43920;DHT22;29578;51.946;5.874;2022-09-09T01:09:07;15.50;82.80
43920;DHT22;29578;51.946;5.874;2022-09-09T01:11:55;15.50;82.80
43920;DHT22;29578;51.946;5.874;2022-09-09T01:14:43;15.50;83.00
43920;DHT22;29578;51.946;5.874;2022-09-09T01:17:19;15.50;83.00
43920;DHT22;29578;51.946;5.874;2022-09-09T01:20:03;15.40;83.00
43920;DHT22;29578;51.946;5.874;2022-09-09T01:22:38;15.40;83.10
43920;DHT22;29578;51.946;5.874;2022-09-09T01:25:21;15.40;83.10
43920;DHT22;29578;51.946;5.874;2022-09-09T01:27:53;15.30;83.20
43920;DHT22;29578;51.946;5.874;2022-09-09T01:30:21;15.10;83.00
43920;DHT22;29578;51.946;5.874;2022-09-09T01:32:51;15.30;83.30
43920;DHT22;29578;51.946;5.874;2022-09-09T01:38:07;15.20;83.30
43920;DHT22;29578;51.946;5.874;2022-09-09T01:40:33;15.20;83.30
43920;DHT22;29578;51.946;5.874;2022-09-09T01:42:59;15.20;83.30
43920;DHT22;29578;51.946;5.874;2022-09-09T01:45:24;15.10;83.30
43920;DHT22;29578;51.946;5.874;2022-09-09T01:47:52;15.10;83.30
43920;DHT22;29578;51.946;5.874;2022-09-09T01:50:19;15.10;83.40
43920;DHT22;29578;51.946;5.874;2022-09-09T01:52:48;15.00;83.50
43920;DHT22;29578;51.946;5.874;2022-09-09T01:55:15;15.00;83.60
43920;DHT22;29578;51.946;5.874;2022-09-09T01:58:14;15.00;83.60
43920;DHT22;29578;51.946;5.874;2022-09-09T02:00:47;14.90;83.60
43920;DHT22;29578;51.946;5.874;2022-09-09T02:03:25;14.90;83.50
43920;DHT22;29578;51.946;5.874;2022-09-09T02:08:46;14.80;83.60
43920;DHT22;29578;51.946;5.874;2022-09-09T02:11:16;14.90;84.30
43920;DHT22;29578;51.946;5.874;2022-09-09T02:13:46;14.80;83.60
43920;DHT22;29578;51.946;5.874;2022-09-09T02:16:21;14.80;83.60
43920;DHT22;29578;51.946;5.874;2022-09-09T02:18:55;14.80;83.70
43920;DHT22;29578;51.946;5.874;2022-09-09T02:21:24;14.80;83.70
43920;DHT22;29578;51.946;5.874;2022-09-09T02:23:51;14.70;83.70
43920;DHT22;29578;51.946;5.874;2022-09-09T02:26:19;14.70;83.70
43920;DHT22;29578;51.946;5.874;2022-09-09T02:28:49;14.70;83.70
43920;DHT22;29578;51.946;5.874;2022-09-09T02:31:18;14.70;83.70
43920;DHT22;29578;51.946;5.874;2022-09-09T02:33:48;14.70;83.70
43920;DHT22;29578;51.946;5.874;2022-09-09T02:36:16;14.70;83.70
43920;DHT22;29578;51.946;5.874;2022-09-09T02:38:45;14.70;83.70
43920;DHT22;29578;51.946;5.874;2022-09-09T02:41:18;14.60;83.70
43920;DHT22;29578;51.946;5.874;2022-09-09T02:43:45;14.60;83.70
43920;DHT22;29578;51.946;5.874;2022-09-09T02:46:43;14.60;83.70
43920;DHT22;29578;51.946;5.874;2022-09-09T02:49:24;14.50;83.80
43920;DHT22;29578;51.946;5.874;2022-09-09T02:52:14;14.50;83.90
43920;DHT22;29578;51.946;5.874;2022-09-09T02:54:42;14.50;83.90
43920;DHT22;29578;51.946;5.874;2022-09-09T02:57:23;14.50;83.90
43920;DHT22;29578;51.946;5.874;2022-09-09T02:59:50;14.40;83.90
43920;DHT22;29578;51.946;5.874;2022-09-09T03:02:18;14.40;83.90
43920;DHT22;29578;51.946;5.874;2022-09-09T03:04:44;14.50;84.00
43920;DHT22;29578;51.946;5.874;2022-09-09T03:07:11;14.40;84.00
43920;DHT22;29578;51.946;5.874;2022-09-09T03:09:37;14.40;84.00
43920;DHT22;29578;51.946;5.874;2022-09-09T03:12:03;14.40;84.00
43920;DHT22;29578;51.946;5.874;2022-09-09T03:14:30;14.40;83.90
43920;DHT22;29578;51.946;5.874;2022-09-09T03:16:56;14.40;84.00
43920;DHT22;29578;51.946;5.874;2022-09-09T03:19:26;14.40;84.00
43920;DHT22;29578;51.946;5.874;2022-09-09T03:21:53;14.40;84.00
43920;DHT22;29578;51.946;5.874;2022-09-09T03:24:19;14.40;84.00
43920;DHT22;29578;51.946;5.874;2022-09-09T03:26:45;14.40;84.00
43920;DHT22;29578;51.946;5.874;2022-09-09T03:29:12;14.40;84.10
43920;DHT22;29578;51.946;5.874;2022-09-09T03:31:39;14.40;84.10
43920;DHT22;29578;51.946;5.874;2022-09-09T03:34:05;14.30;84.00
43920;DHT22;29578;51.946;5.874;2022-09-09T03:36:32;14.30;84.00
43920;DHT22;29578;51.946;5.874;2022-09-09T03:38:58;14.30;84.00
43920;DHT22;29578;51.946;5.874;2022-09-09T03:41:25;14.30;84.10
43920;DHT22;29578;51.946;5.874;2022-09-09T03:43:52;14.30;84.10
43920;DHT22;29578;51.946;5.874;2022-09-09T03:46:19;14.30;84.00
43920;DHT22;29578;51.946;5.874;2022-09-09T03:48:45;14.30;84.00
43920;DHT22;29578;51.946;5.874;2022-09-09T03:51:11;14.30;84.00
43920;DHT22;29578;51.946;5.874;2022-09-09T03:53:36;14.30;84.10
43920;DHT22;29578;51.946;5.874;2022-09-09T03:56:04;14.30;84.50
43920;DHT22;29578;51.946;5.874;2022-09-09T03:58:33;14.40;84.20
43920;DHT22;29578;51.946;5.874;2022-09-09T04:01:01;14.40;84.20
43920;DHT22;29578;51.946;5.874;2022-09-09T04:03:28;14.40;84.10
43920;DHT22;29578;51.946;5.874;2022-09-09T04:05:55;14.40;84.00
43920;DHT22;29578;51.946;5.874;2022-09-09T04:08:21;14.50;84.00
43920;DHT22;29578;51.946;5.874;2022-09-09T04:10:49;14.50;84.00
43920;DHT22;29578;51.946;5.874;2022-09-09T04:13:16;14.50;84.00
43920;DHT22;29578;51.946;5.874;2022-09-09T04:15:43;14.70;84.00
43920;DHT22;29578;51.946;5.874;2022-09-09T04:18:09;14.60;83.90
43920;DHT22;29578;51.946;5.874;2022-09-09T04:20:35;14.60;83.80
43920;DHT22;29578;51.946;5.874;2022-09-09T04:23:01;14.60;83.80
43920;DHT22;29578;51.946;5.874;2022-09-09T04:25:27;14.70;83.90
43920;DHT22;29578;51.946;5.874;2022-09-09T04:27:56;14.70;83.90
43920;DHT22;29578;51.946;5.874;2022-09-09T04:30:23;14.70;83.90
43920;DHT22;29578;51.946;5.874;2022-09-09T04:32:50;14.70;83.90
43920;DHT22;29578;51.946;5.874;2022-09-09T04:35:16;14.80;84.00
43920;DHT22;29578;51.946;5.874;2022-09-09T04:37:42;14.80;84.00
43920;DHT22;29578;51.946;5.874;2022-09-09T04:40:08;14.80;83.90
43920;DHT22;29578;51.946;5.874;2022-09-09T04:42:36;14.80;83.90
43920;DHT22;29578;51.946;5.874;2022-09-09T04:45:02;14.80;83.90
43920;DHT22;29578;51.946;5.874;2022-09-09T04:47:28;14.80;83.90
43920;DHT22;29578;51.946;5.874;2022-09-09T04:49:54;14.90;83.90
43920;DHT22;29578;51.946;5.874;2022-09-09T04:52:20;14.90;83.90
43920;DHT22;29578;51.946;5.874;2022-09-09T04:54:46;14.90;83.90
43920;DHT22;29578;51.946;5.874;2022-09-09T04:57:13;15.00;83.90
43920;DHT22;29578;51.946;5.874;2022-09-09T04:59:39;15.00;84.00
43920;DHT22;29578;51.946;5.874;2022-09-09T05:02:06;15.00;83.90
43920;DHT22;29578;51.946;5.874;2022-09-09T05:04:32;15.10;84.00
43920;DHT22;29578;51.946;5.874;2022-09-09T05:06:59;15.00;83.90
43920;DHT22;29578;51.946;5.874;2022-09-09T05:09:25;15.00;83.90
43920;DHT22;29578;51.946;5.874;2022-09-09T05:11:50;15.10;83.90
43920;DHT22;29578;51.946;5.874;2022-09-09T05:14:16;15.10;83.90
43920;DHT22;29578;51.946;5.874;2022-09-09T05:16:44;15.20;84.00
43920;DHT22;29578;51.946;5.874;2022-09-09T05:19:10;15.20;84.00
43920;DHT22;29578;51.946;5.874;2022-09-09T05:21:37;15.10;84.60
43920;DHT22;29578;51.946;5.874;2022-09-09T05:24:03;15.20;84.00
43920;DHT22;29578;51.946;5.874;2022-09-09T05:26:29;15.30;84.00
43920;DHT22;29578;51.946;5.874;2022-09-09T05:28:55;15.20;84.00
43920;DHT22;29578;51.946;5.874;2022-09-09T05:31:21;15.30;84.10
43920;DHT22;29578;51.946;5.874;2022-09-09T05:33:47;15.30;84.10
43920;DHT22;29578;51.946;5.874;2022-09-09T05:36:17;15.30;84.10
43920;DHT22;29578;51.946;5.874;2022-09-09T05:38:44;15.30;84.10
43920;DHT22;29578;51.946;5.874;2022-09-09T05:41:11;15.30;84.20
43920;DHT22;29578;51.946;5.874;2022-09-09T05:43:38;15.30;84.20
43920;DHT22;29578;51.946;5.874;2022-09-09T05:46:07;15.30;84.30
43920;DHT22;29578;51.946;5.874;2022-09-09T05:48:38;15.40;84.30
43920;DHT22;29578;51.946;5.874;2022-09-09T05:51:06;15.40;84.40
43920;DHT22;29578;51.946;5.874;2022-09-09T05:53:34;15.40;84.40
43920;DHT22;29578;51.946;5.874;2022-09-09T05:56:11;15.40;84.40
43920;DHT22;29578;51.946;5.874;2022-09-09T05:58:37;15.40;84.40
43920;DHT22;29578;51.946;5.874;2022-09-09T06:01:05;15.40;84.40
43920;DHT22;29578;51.946;5.874;2022-09-09T06:03:34;15.40;84.40
43920;DHT22;29578;51.946;5.874;2022-09-09T06:06:02;15.40;84.40
43920;DHT22;29578;51.946;5.874;2022-09-09T06:08:31;15.50;84.50
43920;DHT22;29578;51.946;5.874;2022-09-09T06:11:12;15.40;84.40
43920;DHT22;29578;51.946;5.874;2022-09-09T06:13:38;15.50;84.50
43920;DHT22;29578;51.946;5.874;2022-09-09T06:16:08;15.60;84.40
43920;DHT22;29578;51.946;5.874;2022-09-09T06:18:37;15.60;84.40
43920;DHT22;29578;51.946;5.874;2022-09-09T06:21:06;15.60;84.30
43920;DHT22;29578;51.946;5.874;2022-09-09T06:23:33;15.70;84.30
43920;DHT22;29578;51.946;5.874;2022-09-09T06:26:05;15.70;84.30
43920;DHT22;29578;51.946;5.874;2022-09-09T06:28:32;15.70;84.20
43920;DHT22;29578;51.946;5.874;2022-09-09T06:31:00;15.70;84.10
43920;DHT22;29578;51.946;5.874;2022-09-09T06:33:26;15.80;84.10
43920;DHT22;29578;51.946;5.874;2022-09-09T06:35:54;15.80;84.10
43920;DHT22;29578;51.946;5.874;2022-09-09T06:38:20;15.80;84.00
43920;DHT22;29578;51.946;5.874;2022-09-09T06:40:52;15.80;84.00
43920;DHT22;29578;51.946;5.874;2022-09-09T06:43:20;15.80;84.10
43920;DHT22;29578;51.946;5.874;2022-09-09T06:45:55;15.90;84.20
43920;DHT22;29578;51.946;5.874;2022-09-09T06:48:21;15.90;84.20
43920;DHT22;29578;51.946;5.874;2022-09-09T06:50:47;15.80;84.10
43920;DHT22;29578;51.946;5.874;2022-09-09T06:53:17;15.90;84.20
43920;DHT22;29578;51.946;5.874;2022-09-09T06:55:45;15.90;84.20
43920;DHT22;29578;51.946;5.874;2022-09-09T06:58:11;15.90;84.20
43920;DHT22;29578;51.946;5.874;2022-09-09T07:00:36;15.90;84.20
43920;DHT22;29578;51.946;5.874;2022-09-09T07:03:04;16.00;84.20
43920;DHT22;29578;51.946;5.874;2022-09-09T07:05:31;16.00;84.10
43920;DHT22;29578;51.946;5.874;2022-09-09T07:07:57;16.10;84.10
43920;DHT22;29578;51.946;5.874;2022-09-09T07:10:24;16.10;84.10
43920;DHT22;29578;51.946;5.874;2022-09-09T07:12:52;16.10;84.00
43920;DHT22;29578;51.946;5.874;2022-09-09T07:15:18;16.20;83.90
43920;DHT22;29578;51.946;5.874;2022-09-09T07:17:45;16.20;83.90
43920;DHT22;29578;51.946;5.874;2022-09-09T07:20:11;16.30;83.90
43920;DHT22;29578;51.946;5.874;2022-09-09T07:22:37;16.20;83.90
43920;DHT22;29578;51.946;5.874;2022-09-09T07:25:03;16.20;84.00
43920;DHT22;29578;51.946;5.874;2022-09-09T07:27:29;16.30;83.90
43920;DHT22;29578;51.946;5.874;2022-09-09T07:29:55;16.40;83.80
43920;DHT22;29578;51.946;5.874;2022-09-09T07:32:23;16.40;83.70
43920;DHT22;29578;51.946;5.874;2022-09-09T07:34:48;16.40;83.70
43920;DHT22;29578;51.946;5.874;2022-09-09T07:37:16;16.50;83.60
43920;DHT22;29578;51.946;5.874;2022-09-09T07:39:42;16.60;83.50
43920;DHT22;29578;51.946;5.874;2022-09-09T07:42:08;16.60;83.30
43920;DHT22;29578;51.946;5.874;2022-09-09T07:44:35;16.70;83.20
43920;DHT22;29578;51.946;5.874;2022-09-09T07:47:02;16.70;83.20
43920;DHT22;29578;51.946;5.874;2022-09-09T07:49:28;16.90;83.10
43920;DHT22;29578;51.946;5.874;2022-09-09T07:51:54;16.90;82.90
43920;DHT22;29578;51.946;5.874;2022-09-09T07:54:20;16.90;82.90
43920;DHT22;29578;51.946;5.874;2022-09-09T07:56:49;16.90;82.80
43920;DHT22;29578;51.946;5.874;2022-09-09T07:59:15;17.00;82.80
43920;DHT22;29578;51.946;5.874;2022-09-09T08:01:45;17.00;82.70
43920;DHT22;29578;51.946;5.874;2022-09-09T08:04:14;17.10;82.70
43920;DHT22;29578;51.946;5.874;2022-09-09T08:06:43;17.10;82.70
43920;DHT22;29578;51.946;5.874;2022-09-09T08:09:09;17.20;82.50
43920;DHT22;29578;51.946;5.874;2022-09-09T08:11:36;17.20;82.40
43920;DHT22;29578;51.946;5.874;2022-09-09T08:14:03;17.20;82.50
43920;DHT22;29578;51.946;5.874;2022-09-09T08:16:32;17.20;82.70
43920;DHT22;29578;51.946;5.874;2022-09-09T08:18:58;17.10;82.60
43920;DHT22;29578;51.946;5.874;2022-09-09T08:21:27;17.20;82.70
43920;DHT22;29578;51.946;5.874;2022-09-09T08:23:54;17.20;82.60
43920;DHT22;29578;51.946;5.874;2022-09-09T08:26:23;17.20;82.60
43920;DHT22;29578;51.946;5.874;2022-09-09T08:28:50;17.30;82.50
43920;DHT22;29578;51.946;5.874;2022-09-09T08:31:20;17.30;82.40
43920;DHT22;29578;51.946;5.874;2022-09-09T08:33:47;17.30;82.30
43920;DHT22;29578;51.946;5.874;2022-09-09T08:36:16;17.30;82.30
43920;DHT22;29578;51.946;5.874;2022-09-09T08:38:43;17.30;82.30
43920;DHT22;29578;51.946;5.874;2022-09-09T08:44:04;17.30;82.20
43920;DHT22;29578;51.946;5.874;2022-09-09T08:52:31;17.40;82.20
43920;DHT22;29578;51.946;5.874;2022-09-09T08:55:15;17.40;81.90
43920;DHT22;29578;51.946;5.874;2022-09-09T08:57:46;17.50;81.90
43920;DHT22;29578;51.946;5.874;2022-09-09T09:00:14;17.50;81.80
43920;DHT22;29578;51.946;5.874;2022-09-09T09:02:52;17.60;81.50
43920;DHT22;29578;51.946;5.874;2022-09-09T09:08:29;17.60;81.30
43920;DHT22;29578;51.946;5.874;2022-09-09T09:10:57;17.70;81.20
43920;DHT22;29578;51.946;5.874;2022-09-09T09:13:41;17.80;80.80
43920;DHT22;29578;51.946;5.874;2022-09-09T09:16:17;17.90;80.60
43920;DHT22;29578;51.946;5.874;2022-09-09T09:18:45;17.90;80.50
43920;DHT22;29578;51.946;5.874;2022-09-09T09:21:56;18.00;80.50
43920;DHT22;29578;51.946;5.874;2022-09-09T09:24:16;17.90;80.50
43920;DHT22;29578;51.946;5.874;2022-09-09T09:26:44;18.00;80.60
43920;DHT22;29578;51.946;5.874;2022-09-09T09:29:13;18.00;80.60
43920;DHT22;29578;51.946;5.874;2022-09-09T09:31:45;17.80;80.50
43920;DHT22;29578;51.946;5.874;2022-09-09T09:34:13;17.80;80.60
43920;DHT22;29578;51.946;5.874;2022-09-09T09:36:42;17.80;80.60
43920;DHT22;29578;51.946;5.874;2022-09-09T09:39:10;17.80;80.50
43920;DHT22;29578;51.946;5.874;2022-09-09T09:41:40;17.80;80.40
43920;DHT22;29578;51.946;5.874;2022-09-09T09:44:30;17.90;80.30
43920;DHT22;29578;51.946;5.874;2022-09-09T09:47:15;17.90;80.20
43920;DHT22;29578;51.946;5.874;2022-09-09T09:49:53;18.00;80.00
43920;DHT22;29578;51.946;5.874;2022-09-09T09:52:23;18.30;79.80
43920;DHT22;29578;51.946;5.874;2022-09-09T09:54:50;18.30;79.50
43920;DHT22;29578;51.946;5.874;2022-09-09T09:57:18;18.50;79.30
43920;DHT22;29578;51.946;5.874;2022-09-09T09:59:47;18.50;78.90
43920;DHT22;29578;51.946;5.874;2022-09-09T10:02:17;18.50;78.80
43920;DHT22;29578;51.946;5.874;2022-09-09T10:04:43;18.60;78.90
43920;DHT22;29578;51.946;5.874;2022-09-09T10:07:15;18.50;79.00
43920;DHT22;29578;51.946;5.874;2022-09-09T10:09:42;18.40;79.10
43920;DHT22;29578;51.946;5.874;2022-09-09T10:15:34;18.30;79.40
43920;DHT22;29578;51.946;5.874;2022-09-09T10:18:22;18.20;79.50
43920;DHT22;29578;51.946;5.874;2022-09-09T10:21:22;18.20;79.50
43920;DHT22;29578;51.946;5.874;2022-09-09T10:24:17;18.10;79.60
43920;DHT22;29578;51.946;5.874;2022-09-09T10:27:02;18.10;79.70
43920;DHT22;29578;51.946;5.874;2022-09-09T10:30:03;18.10;79.60
43920;DHT22;29578;51.946;5.874;2022-09-09T10:35:29;18.20;79.20
43920;DHT22;29578;51.946;5.874;2022-09-09T10:38:18;18.30;79.10
43920;DHT22;29578;51.946;5.874;2022-09-09T10:41:00;18.30;79.00
43920;DHT22;29578;51.946;5.874;2022-09-09T10:46:46;18.30;79.00
43920;DHT22;29578;51.946;5.874;2022-09-09T10:52:21;18.10;79.30
43920;DHT22;29578;51.946;5.874;2022-09-09T10:55:13;18.20;79.40
43920;DHT22;29578;51.946;5.874;2022-09-09T10:57:44;18.30;79.30
43920;DHT22;29578;51.946;5.874;2022-09-09T11:00:42;18.30;78.80
43920;DHT22;29578;51.946;5.874;2022-09-09T11:03:21;18.30;78.70
43920;DHT22;29578;51.946;5.874;2022-09-09T11:05:55;18.30;78.70
43920;DHT22;29578;51.946;5.874;2022-09-09T11:08:25;18.30;78.70
43920;DHT22;29578;51.946;5.874;2022-09-09T11:10:58;18.30;78.60
43920;DHT22;29578;51.946;5.874;2022-09-09T11:13:41;18.40;78.60
43920;DHT22;29578;51.946;5.874;2022-09-09T11:19:11;18.30;78.60
43920;DHT22;29578;51.946;5.874;2022-09-09T11:21:45;18.10;78.90
43920;DHT22;29578;51.946;5.874;2022-09-09T11:24:20;18.10;79.40
43920;DHT22;29578;51.946;5.874;2022-09-09T11:26:54;18.10;79.60
43920;DHT22;29578;51.946;5.874;2022-09-09T11:29:37;18.10;79.70
43920;DHT22;29578;51.946;5.874;2022-09-09T11:38:05;18.20;79.70
43920;DHT22;29578;51.946;5.874;2022-09-09T11:40:32;18.40;79.40
43920;DHT22;29578;51.946;5.874;2022-09-09T11:43:11;18.40;79.20
43920;DHT22;29578;51.946;5.874;2022-09-09T11:45:40;18.50;79.00
43920;DHT22;29578;51.946;5.874;2022-09-09T11:48:31;18.40;79.00
43920;DHT22;29578;51.946;5.874;2022-09-09T11:51:00;18.50;79.30
43920;DHT22;29578;51.946;5.874;2022-09-09T11:53:26;18.40;79.20
43920;DHT22;29578;51.946;5.874;2022-09-09T11:56:06;18.30;79.40
43920;DHT22;29578;51.946;5.874;2022-09-09T11:58:39;18.20;79.80
43920;DHT22;29578;51.946;5.874;2022-09-09T12:01:16;18.10;80.10
43920;DHT22;29578;51.946;5.874;2022-09-09T12:04:01;18.10;80.60
43920;DHT22;29578;51.946;5.874;2022-09-09T12:06:32;18.30;80.50
43920;DHT22;29578;51.946;5.874;2022-09-09T12:09:22;18.30;80.40
43920;DHT22;29578;51.946;5.874;2022-09-09T12:11:49;18.50;80.20
43920;DHT22;29578;51.946;5.874;2022-09-09T12:17:17;18.50;79.80
43920;DHT22;29578;51.946;5.874;2022-09-09T12:19:44;18.40;79.90
43920;DHT22;29578;51.946;5.874;2022-09-09T12:22:28;18.30;80.20
43920;DHT22;29578;51.946;5.874;2022-09-09T12:25:16;18.30;80.60
43920;DHT22;29578;51.946;5.874;2022-09-09T12:27:50;18.30;80.80
43920;DHT22;29578;51.946;5.874;2022-09-09T12:30:21;18.30;80.70
43920;DHT22;29578;51.946;5.874;2022-09-09T12:33:02;18.30;80.80
43920;DHT22;29578;51.946;5.874;2022-09-09T12:35:28;18.40;80.70
43920;DHT22;29578;51.946;5.874;2022-09-09T12:37:59;18.50;80.30
43920;DHT22;29578;51.946;5.874;2022-09-09T12:40:29;18.50;80.10
43920;DHT22;29578;51.946;5.874;2022-09-09T12:42:55;18.60;80.00
43920;DHT22;29578;51.946;5.874;2022-09-09T12:45:23;18.60;80.00
43920;DHT22;29578;51.946;5.874;2022-09-09T12:47:56;18.80;79.90
43920;DHT22;29578;51.946;5.874;2022-09-09T12:50:26;18.70;79.70
43920;DHT22;29578;51.946;5.874;2022-09-09T12:52:58;18.70;79.80
43920;DHT22;29578;51.946;5.874;2022-09-09T12:55:28;18.80;79.70
43920;DHT22;29578;51.946;5.874;2022-09-09T12:57:55;18.70;79.60
43920;DHT22;29578;51.946;5.874;2022-09-09T13:00:23;18.70;79.70
43920;DHT22;29578;51.946;5.874;2022-09-09T13:02:53;18.70;79.80
43920;DHT22;29578;51.946;5.874;2022-09-09T13:05:23;18.60;79.90
43920;DHT22;29578;51.946;5.874;2022-09-09T13:07:50;18.60;80.00
43920;DHT22;29578;51.946;5.874;2022-09-09T13:10:23;18.50;80.10
43920;DHT22;29578;51.946;5.874;2022-09-09T13:12:50;18.40;80.40
43920;DHT22;29578;51.946;5.874;2022-09-09T13:15:21;18.40;80.70
43920;DHT22;29578;51.946;5.874;2022-09-09T13:18:11;18.40;80.80
43920;DHT22;29578;51.946;5.874;2022-09-09T13:20:38;18.40;80.80
43920;DHT22;29578;51.946;5.874;2022-09-09T13:23:05;18.40;80.70
43920;DHT22;29578;51.946;5.874;2022-09-09T13:25:31;18.50;80.60
43920;DHT22;29578;51.946;5.874;2022-09-09T13:28:02;18.60;80.50
43920;DHT22;29578;51.946;5.874;2022-09-09T13:30:37;18.60;80.20
43920;DHT22;29578;51.946;5.874;2022-09-09T13:33:22;18.70;80.10
43920;DHT22;29578;51.946;5.874;2022-09-09T13:35:58;18.70;80.00
43920;DHT22;29578;51.946;5.874;2022-09-09T13:38:25;18.70;79.80
43920;DHT22;29578;51.946;5.874;2022-09-09T13:40:55;18.80;79.90
43920;DHT22;29578;51.946;5.874;2022-09-09T13:43:24;18.90;79.90
43920;DHT22;29578;51.946;5.874;2022-09-09T13:46:01;18.80;79.80
43920;DHT22;29578;51.946;5.874;2022-09-09T13:48:27;18.90;79.70
43920;DHT22;29578;51.946;5.874;2022-09-09T13:50:56;18.80;79.60
43920;DHT22;29578;51.946;5.874;2022-09-09T13:53:22;18.90;79.80
43920;DHT22;29578;51.946;5.874;2022-09-09T13:55:48;18.80;79.90
43920;DHT22;29578;51.946;5.874;2022-09-09T13:58:16;18.70;80.00
43920;DHT22;29578;51.946;5.874;2022-09-09T14:00:44;18.70;80.00
43920;DHT22;29578;51.946;5.874;2022-09-09T14:03:11;18.70;80.20
43920;DHT22;29578;51.946;5.874;2022-09-09T14:05:37;18.60;80.20
43920;DHT22;29578;51.946;5.874;2022-09-09T14:08:05;18.60;80.20
43920;DHT22;29578;51.946;5.874;2022-09-09T14:10:31;18.70;80.10
43920;DHT22;29578;51.946;5.874;2022-09-09T14:12:57;18.80;79.80
43920;DHT22;29578;51.946;5.874;2022-09-09T14:15:23;18.90;79.60
43920;DHT22;29578;51.946;5.874;2022-09-09T14:17:48;18.80;79.30
43920;DHT22;29578;51.946;5.874;2022-09-09T14:20:14;18.80;79.30
43920;DHT22;29578;51.946;5.874;2022-09-09T14:22:41;18.70;79.30
43920;DHT22;29578;51.946;5.874;2022-09-09T14:25:07;18.60;79.50
43920;DHT22;29578;51.946;5.874;2022-09-09T14:27:33;18.60;79.70
43920;DHT22;29578;51.946;5.874;2022-09-09T14:29:59;18.60;79.80
43920;DHT22;29578;51.946;5.874;2022-09-09T14:32:26;18.50;79.80
43920;DHT22;29578;51.946;5.874;2022-09-09T14:34:52;18.50;79.80
43920;DHT22;29578;51.946;5.874;2022-09-09T14:37:18;18.60;79.90
43920;DHT22;29578;51.946;5.874;2022-09-09T14:39:44;18.60;79.70
43920;DHT22;29578;51.946;5.874;2022-09-09T14:42:12;18.70;79.60
43920;DHT22;29578;51.946;5.874;2022-09-09T14:44:38;18.80;79.50
43920;DHT22;29578;51.946;5.874;2022-09-09T14:47:06;18.80;79.30
43920;DHT22;29578;51.946;5.874;2022-09-09T14:49:34;18.90;79.40
43920;DHT22;29578;51.946;5.874;2022-09-09T14:52:02;18.90;79.30
43920;DHT22;29578;51.946;5.874;2022-09-09T14:54:32;19.00;79.10
43920;DHT22;29578;51.946;5.874;2022-09-09T14:56:58;19.10;79.00
43920;DHT22;29578;51.946;5.874;2022-09-09T14:59:24;19.10;78.80
43920;DHT22;29578;51.946;5.874;2022-09-09T15:01:50;19.10;78.90
43920;DHT22;29578;51.946;5.874;2022-09-09T15:04:16;19.10;78.80
43920;DHT22;29578;51.946;5.874;2022-09-09T15:06:42;19.10;78.80
43920;DHT22;29578;51.946;5.874;2022-09-09T15:09:10;19.10;78.80
43920;DHT22;29578;51.946;5.874;2022-09-09T15:11:37;19.00;78.80
43920;DHT22;29578;51.946;5.874;2022-09-09T15:14:04;19.00;78.90
43920;DHT22;29578;51.946;5.874;2022-09-09T15:16:30;19.10;78.90
43920;DHT22;29578;51.946;5.874;2022-09-09T15:18:58;19.10;78.90
43920;DHT22;29578;51.946;5.874;2022-09-09T15:21:27;19.10;78.80
43920;DHT22;29578;51.946;5.874;2022-09-09T15:23:56;19.10;78.80
43920;DHT22;29578;51.946;5.874;2022-09-09T15:26:22;19.10;78.90
43920;DHT22;29578;51.946;5.874;2022-09-09T15:28:48;19.10;78.90
43920;DHT22;29578;51.946;5.874;2022-09-09T15:31:25;19.10;78.90
43920;DHT22;29578;51.946;5.874;2022-09-09T15:33:53;19.10;79.00
43920;DHT22;29578;51.946;5.874;2022-09-09T15:36:27;19.10;79.00
43920;DHT22;29578;51.946;5.874;2022-09-09T15:38:54;19.10;79.10
43920;DHT22;29578;51.946;5.874;2022-09-09T15:41:21;19.10;79.10
43920;DHT22;29578;51.946;5.874;2022-09-09T15:43:50;19.10;79.00
43920;DHT22;29578;51.946;5.874;2022-09-09T15:46:35;19.10;78.90
43920;DHT22;29578;51.946;5.874;2022-09-09T15:49:08;19.10;78.80
43920;DHT22;29578;51.946;5.874;2022-09-09T15:51:36;19.20;78.80
43920;DHT22;29578;51.946;5.874;2022-09-09T15:54:03;19.10;78.70
43920;DHT22;29578;51.946;5.874;2022-09-09T15:56:29;19.10;78.70
43920;DHT22;29578;51.946;5.874;2022-09-09T15:58:56;19.10;78.70
43920;DHT22;29578;51.946;5.874;2022-09-09T16:01:23;19.00;78.70
43920;DHT22;29578;51.946;5.874;2022-09-09T16:03:49;19.00;78.70
43920;DHT22;29578;51.946;5.874;2022-09-09T16:06:19;19.00;78.80
43920;DHT22;29578;51.946;5.874;2022-09-09T16:08:48;18.90;78.90
43920;DHT22;29578;51.946;5.874;2022-09-09T16:11:20;18.70;79.20
43920;DHT22;29578;51.946;5.874;2022-09-09T16:13:48;18.60;79.70
43920;DHT22;29578;51.946;5.874;2022-09-09T16:16:15;18.50;80.10
43920;DHT22;29578;51.946;5.874;2022-09-09T16:18:44;18.40;80.30
43920;DHT22;29578;51.946;5.874;2022-09-09T16:21:15;18.40;80.70
43920;DHT22;29578;51.946;5.874;2022-09-09T16:23:41;18.30;80.90
43920;DHT22;29578;51.946;5.874;2022-09-09T16:26:11;18.30;81.00
43920;DHT22;29578;51.946;5.874;2022-09-09T16:28:37;18.30;81.00
43920;DHT22;29578;51.946;5.874;2022-09-09T16:31:07;18.20;80.90
43920;DHT22;29578;51.946;5.874;2022-09-09T16:33:33;18.20;81.00
43920;DHT22;29578;51.946;5.874;2022-09-09T16:36:06;18.30;81.10
43920;DHT22;29578;51.946;5.874;2022-09-09T16:38:32;18.10;81.10
43920;DHT22;29578;51.946;5.874;2022-09-09T16:40:59;18.00;81.20
43920;DHT22;29578;51.946;5.874;2022-09-09T16:43:25;18.00;81.30